Thursday, September 20, 2018, 6:27 PM EDT
Back to Local

KJHW, Jamestown, Chautauqua County/jamestown Airport

Location: Jamestown, NY, United States Lat: 42.15
Local Time: 6:27 PM EDT (22:27 GMT) Lon: -79.267
Time Zone: US/Eastern Elev: 1722 ft

Show me the last for .
Show Decoded

2018-09-20 17:56 METAR KJHW 202156Z AUTO 16004KT 10SM SCT090 22/18 A3013 RMK AO2 SLP202 T02220178
                 PNO $ =
2018-09-20 16:56 METAR KJHW 202056Z AUTO 18005KT 10SM BKN100 23/17 A3013 RMK AO2 SLP202 6////
                 T02280172 56014 PNO $ =
2018-09-20 15:56 METAR KJHW 201956Z AUTO 20007KT 10SM FEW032 23/17 A3014 RMK AO2 SLP205 T02280172
                 PNO $ =
2018-09-20 14:56 METAR KJHW 201856Z AUTO 14007KT 10SM FEW027 23/18 A3015 RMK AO2 SLP209 T02280178
                 PNO $ =
2018-09-20 13:56 METAR KJHW 201756Z AUTO 16004KT 10SM CLR 22/17 A3018 RMK AO2 SLP217 6////
                 T02220172 10222 20133 56009 PNO $ =
2018-09-20 12:56 METAR KJHW 201656Z AUTO 16005KT 10SM SCT014 21/17 A3018 RMK AO2 SLP218 T02060172
                 PNO $ =
2018-09-20 12:20 METAR KJHW 201620Z AUTO VRB03KT 10SM SCT012 19/17 A3020 RMK AO2 PNO $ =
2018-09-20 12:11 METAR KJHW 201611Z AUTO 15004KT 10SM BKN010 19/17 A3019 RMK AO2 PNO $ =
2018-09-20 12:03 METAR KJHW 201603Z AUTO VRB05KT 10SM SCT010 19/17 A3019 RMK AO2 PNO $ =
2018-09-20 11:56 METAR KJHW 201556Z AUTO 20005KT 10SM BKN010 19/17 A3020 RMK AO2 CIG 007V012
                 SLP227 T01890167 PNO $ =
2018-09-20 11:49 METAR KJHW 201549Z AUTO 15004KT 10SM BKN010 18/17 A3020 RMK AO2 CIG 006V012 PNO
                 $ =
2018-09-20 10:56 METAR KJHW 201456Z AUTO 17006KT 10SM OVC005 17/16 A3020 RMK AO2 SLP230 6////
                 T01670156 53007 PNO $ =
2018-09-20 10:35 METAR KJHW 201435Z AUTO 17008KT 10SM OVC005 16/15 A3020 RMK AO2 PNO $ =
2018-09-20 09:56 METAR KJHW 201356Z AUTO 17005KT 10SM OVC003 15/15 A3019 RMK AO2 SLP227 T01500150
                 PNO $ =
2018-09-20 09:44 METAR KJHW 201344Z AUTO 17006KT 10SM OVC003 15/14 A3019 RMK AO2 PNO $ =
2018-09-20 09:28 METAR KJHW 201328Z AUTO 16006KT 9SM OVC001 14/14 A3018 RMK AO2 PNO $ =
2018-09-20 09:21 METAR KJHW 201321Z AUTO 16006KT 2SM BR BKN001 14/14 A3018 RMK AO2 PNO $ =
2018-09-20 09:19 METAR KJHW 201319Z AUTO 16005KT 3/4SM BR BKN001 14/14 A3018 RMK AO2 RVRNO PNO $
                 =
2018-09-20 09:11 METAR KJHW 201311Z AUTO 17005KT 1/4SM FG BKN001 14/14 A3018 RMK AO2 RVRNO PNO $
                 =
2018-09-20 09:08 METAR KJHW 201308Z AUTO 17005KT 3/4SM BR BKN001 14/14 A3018 RMK AO2 RVRNO PNO $
                 =
2018-09-20 09:06 METAR KJHW 201306Z AUTO 17006KT 1 3/4SM BR BKN001 14/14 A3018 RMK AO2 PNO $ =
2018-09-20 08:56 METAR KJHW 201256Z AUTO 17006KT 8SM SCT003 14/14 A3017 RMK AO2 SLP220 T01440144
                 PNO $ =
2018-09-20 08:37 METAR KJHW 201237Z AUTO 00000KT 4SM BR SCT001 14/14 A3018 RMK AO2 PNO $ =
2018-09-20 08:35 METAR KJHW 201235Z AUTO 00000KT 2 1/2SM BR BKN001 14/14 A3018 RMK AO2 VIS 1V5
                 PNO $ =
2018-09-20 08:33 METAR KJHW 201233Z AUTO 14003KT 3/4SM BR BKN001 14/14 A3018 RMK AO2 VIS M1/4V4
                 RVRNO PNO $ =
2018-09-20 08:06 METAR KJHW 201206Z AUTO 17003KT 1/4SM FG OVC001 13/13 A3018 RMK AO2 RVRNO PNO $
                 =
2018-09-20 08:00 METAR KJHW 201200Z AUTO 17003KT 3/4SM BR BKN001 13/13 A3018 RMK AO2 RVRNO PNO $
                 =
2018-09-20 07:56 METAR KJHW 201156Z AUTO 19003KT 1/4SM FG BKN001 13/13 A3018 RMK AO2 SLP223 6////
                 7//// T01330133 10144 20128 51019 RVRNO PNO $ =
2018-09-20 07:38 METAR KJHW 201138Z AUTO 09003KT 1/4SM FG BKN001 13/13 A3018 RMK AO2 RVRNO PNO $
                 =
2018-09-20 07:35 METAR KJHW 201135Z AUTO 08003KT 3/4SM BR BKN001 13/13 A3018 RMK AO2 VIS 1/4V3
                 RVRNO PNO $ =
2018-09-20 07:32 METAR KJHW 201132Z AUTO 00000KT 1 1/4SM BR BKN001 13/13 A3018 RMK AO2 VIS 1/2V3
                 PNO $ =
2018-09-20 07:29 METAR KJHW 201129Z AUTO 00000KT 3/4SM BR BKN001 13/13 A3018 RMK AO2 RVRNO PNO $
                 =
2018-09-20 06:56 METAR KJHW 201056Z AUTO 08004KT 1/4SM FG VV001 13/13 A3016 RMK AO2 SLP217
                 T01330133 TSNO RVRNO PNO $ =
2018-09-20 06:53 METAR KJHW 201053Z AUTO 06003KT 1/4SM FG VV002 13/13 A3016 RMK AO2 RVRNO PNO $ =
2018-09-20 06:49 METAR KJHW 201049Z AUTO 06003KT 3/4SM BR VV003 13/13 A3016 RMK AO2 VIS 1/4V5
                 RVRNO PNO $ =
2018-09-20 06:46 METAR KJHW 201046Z AUTO 06003KT 1 3/4SM BR FEW003 13/13 A3016 RMK AO2 VIS 1/2V5
                 PNO $ =
2018-09-20 06:34 METAR KJHW 201034Z AUTO 00000KT 3SM BR FEW001 13/13 A3015 RMK AO2 PNO $ =
2018-09-20 06:30 METAR KJHW 201030Z AUTO 00000KT 1 1/4SM BR SCT001 13/13 A3015 RMK AO2 PNO $ =
2018-09-20 06:25 METAR KJHW 201025Z AUTO 00000KT 3/4SM BR BKN001 13/13 A3015 RMK AO2 RVRNO PNO $
                 =
2018-09-20 06:03 METAR KJHW 201003Z AUTO 00000KT 1/4SM FG BKN001 13/13 A3015 RMK AO2 RVRNO PNO $
                 =
2018-09-20 05:56 METAR KJHW 200956Z AUTO 00000KT 1/2SM FG BKN001 13/13 A3015 RMK AO2 SLP209
                 T01330133 RVRNO PNO $ =
2018-09-20 05:47 METAR KJHW 200947Z AUTO 00000KT 1SM BR BKN001 13/13 A3015 RMK AO2 RVRNO PNO $ =
2018-09-20 05:39 METAR KJHW 200939Z AUTO 00000KT 1/2SM FG OVC001 13/13 A3014 RMK AO2 RVRNO PNO $
                 =
2018-09-20 04:56 METAR KJHW 200856Z AUTO 00000KT 1/4SM FG OVC001 13/13 A3012 RMK AO2 SLP201 6////
                 T01330128 53002 RVRNO PNO $ =
2018-09-20 04:47 METAR KJHW 200847Z AUTO 11003KT 1/2SM FG OVC001 13/13 A3012 RMK AO2 RVRNO PNO $
                 =
2018-09-20 04:38 METAR KJHW 200838Z AUTO 07003KT 3/4SM BR OVC001 13/13 A3013 RMK AO2 TSNO RVRNO
                 PNO $ =
2018-09-20 04:36 METAR KJHW 200836Z AUTO 07003KT 1 1/4SM BR OVC001 13/13 A3013 RMK AO2 VIS 3/4V2
                 1/2 PNO $ =
2018-09-20 04:29 METAR KJHW 200829Z AUTO 09003KT 1SM BR BKN001 13/13 A3012 RMK AO2 VIS 1/2V3
                 RVRNO PNO $ =
2018-09-20 04:19 METAR KJHW 200819Z AUTO 08003KT 1/2SM FG BKN001 13/13 A3012 RMK AO2 RVRNO PNO $
                 =
2018-09-20 04:16 METAR KJHW 200816Z AUTO 07003KT 1SM BR VV001 13/13 A3012 RMK AO2 VIS 1/2V5 RVRNO
                 PNO $ =
2018-09-20 04:13 METAR KJHW 200813Z AUTO 00000KT 2 1/2SM BR SCT001 13/13 A3012 RMK AO2 VIS 3/4V5
                 PNO $ =
2018-09-20 03:56 METAR KJHW 200756Z AUTO 11003KT 6SM BR CLR 13/13 A3011 RMK AO2 SLP197 T01330133
                 PNO $ =
2018-09-20 02:56 METAR KJHW 200656Z AUTO 08004KT 6SM BR CLR 14/13 A3012 RMK AO2 SLP198 T01390133
                 PNO $ =
2018-09-20 01:56 METAR KJHW 200556Z AUTO 09005KT 10SM CLR 14/14 A3012 RMK AO2 SLP198 6////
                 T01440139 10167 20144 58006 PNO $ =
2018-09-20 00:56 METAR KJHW 200456Z AUTO 09003KT 10SM CLR 14/14 A3013 RMK AO2 SLP203 T01440139
                 402110144 PNO $ =
2018-09-19 23:56 METAR KJHW 200356Z AUTO 06005KT 10SM CLR 14/14 A3014 RMK AO2 SLP206 T01440139
                 PNO $ =
2018-09-19 22:56 METAR KJHW 200256Z AUTO 03006KT 10SM CLR 15/14 A3014 RMK AO2 SLP206 6////
                 T01500139 51008 PNO $ =
2018-09-19 21:56 METAR KJHW 200156Z AUTO 03005KT 10SM CLR 16/14 A3013 RMK AO2 SLP206 T01560139
                 PNO $ =
2018-09-19 20:56 METAR KJHW 200056Z AUTO 04006KT 10SM CLR 16/14 A3012 RMK AO2 SLP201 T01610144
                 PNO $ =
2018-09-19 19:56 METAR KJHW 192356Z AUTO 36007KT 10SM CLR 17/14 A3011 RMK AO2 SLP198 6////
                 T01670144 10211 20167 53010 PNO $ =
2018-09-19 18:56 METAR KJHW 192256Z AUTO 35007KT 10SM CLR 18/14 A3010 RMK AO2 SLP191 T01780144
                 PNO $ =

Support USWX by starting your Amazon purchase here.